Pittsburg, Kentucky
Current Conditions -  °F | °C
As of 3:53 PM on Wednesday 17 Dec 2014 (Local Time) from KLOZ Reporting Station
Scattered Clouds Scattered Clouds  
Wind Chill: 36°   Ceiling: Unl
Heat Index: 39°   Visibility: 10mi
Dew Point: 27°   Wind: 5mph
Humidity: 62%   Direction: NA
Pressure: 30.19"   Gusts: NA
Location:  37.16°N, 84.1°W
Report Text: KLOZ 172053Z AUTO VRB04KT 10SM SCT022 04/M03 A3019 RMK AO2 SLP228 T00391028 56010
Loading
Personal Weather Stations






























Interactive Weather Map New forecast layout! Learn more

10-Day Weather Forecast

Advertisements
Track Severe Weather on mobile